Time;durP1;ratioP1;P1;durP2;ratioP2;P2;SDS_P1;SDS_P2;PMS_P1;PMS_P2;Temp;Humidity;BMP_temperature;BMP_pressure;BME280_temperature;BME280_humidity;BME280_pressure;Samples;Min_cycle;Max_cycle;Signal;HPM_P1;HPM_P2
2022/08/26 00:01:11;;;;;;;5.37;2.60;;;17.80;99.90;;;;;;5053870;28;20412;-68
2022/08/26 00:03:38;;;;;;;5.23;2.70;;;17.70;99.90;;;;;;5054564;28;20654;-67
2022/08/26 00:06:04;;;;;;;7.27;3.07;;;17.70;99.90;;;;;;5054393;28;20194;-68
2022/08/26 00:08:29;;;;;;;5.30;3.00;;;17.70;99.90;;;;;;5054671;28;20400;-67
2022/08/26 00:10:55;;;;;;;5.10;2.87;;;17.60;99.90;;;;;;5054222;28;20435;-67
2022/08/26 00:13:21;;;;;;;4.50;2.57;;;17.70;99.90;;;;;;5054101;28;20897;-68
2022/08/26 00:15:46;;;;;;;4.80;2.83;;;17.70;99.90;;;;;;5054360;28;20610;-67
2022/08/26 00:18:13;;;;;;;6.53;2.80;;;17.60;99.90;;;;;;5054287;28;20704;-67
2022/08/26 00:20:39;;;;;;;6.03;3.10;;;17.50;99.90;;;;;;5054439;28;20607;-67
2022/08/26 00:23:05;;;;;;;4.27;2.40;;;17.50;99.90;;;;;;5053631;28;20987;-67
2022/08/26 00:25:31;;;;;;;5.23;3.07;;;17.50;99.90;;;;;;5053909;28;20448;-67
2022/08/26 00:27:57;;;;;;;6.03;3.20;;;17.40;99.90;;;;;;5053746;28;20400;-68
2022/08/26 00:30:25;;;;;;;4.03;2.53;;;17.40;99.90;;;;;;5054102;28;20893;-67
2022/08/26 00:32:51;;;;;;;5.87;2.70;;;17.40;99.90;;;;;;5052694;28;20208;-67
2022/08/26 00:35:17;;;;;;;5.07;3.20;;;17.30;99.90;;;;;;5053846;28;20820;-67
2022/08/26 00:37:43;;;;;;;4.77;2.83;;;17.30;99.90;;;;;;5053759;28;20174;-67
2022/08/26 00:40:14;;;;;;;5.03;2.90;;;17.30;99.90;;;;;;5053704;28;20231;-67
2022/08/26 00:42:40;;;;;;;4.43;2.80;;;17.30;99.90;;;;;;5053076;28;20450;-67
2022/08/26 00:45:06;;;;;;;4.50;2.03;;;17.30;99.90;;;;;;5053520;28;20932;-67
2022/08/26 00:47:53;;;;;;;4.67;2.67;;;17.30;99.90;;;;;;5053211;28;20182;-67
2022/08/26 00:50:23;;;;;;;4.07;2.57;;;17.30;99.90;;;;;;5053688;28;20404;-67
2022/08/26 00:52:51;;;;;;;5.03;2.70;;;17.30;99.90;;;;;;5052931;28;20782;-67
2022/08/26 00:55:18;;;;;;;4.70;2.77;;;17.30;99.90;;;;;;5053372;28;20436;-68
2022/08/26 00:57:47;;;;;;;9.63;3.53;;;17.30;99.90;;;;;;5034836;28;20452;-67
2022/08/26 01:00:17;;;;;;;4.20;2.80;;;17.20;99.90;;;;;;5033542;28;20402;-68
2022/08/26 01:02:44;;;;;;;6.60;3.00;;;17.20;99.90;;;;;;5032748;28;20409;-67
2022/08/26 01:05:10;;;;;;;3.60;2.67;;;17.10;99.90;;;;;;5033284;28;20972;-67
2022/08/26 01:07:36;;;;;;;3.67;2.30;;;17.10;99.90;;;;;;5033307;28;20405;-67
2022/08/26 01:10:06;;;;;;;4.20;2.73;;;17.20;99.90;;;;;;5033308;28;20405;-68
2022/08/26 01:12:37;;;;;;;5.93;3.30;;;17.10;99.90;;;;;;5032491;28;20505;-67
2022/08/26 01:15:04;;;;;;;7.67;2.70;;;17.10;99.90;;;;;;5033095;28;20492;-67
2022/08/26 01:17:30;;;;;;;6.33;2.53;;;17.10;99.90;;;;;;5032889;28;20413;-67
2022/08/26 01:20:05;;;;;;;7.53;3.17;;;17.00;99.90;;;;;;5032974;28;20424;-67
2022/08/26 01:22:56;;;;;;;10.07;3.60;;;17.00;99.90;;;;;;5031039;28;20177;-67
2022/08/26 01:25:24;;;;;;;5.50;3.07;;;17.10;99.90;;;;;;5032989;28;20449;-67
2022/08/26 01:27:51;;;;;;;5.60;2.77;;;17.10;99.90;;;;;;5032785;28;20901;-67
2022/08/26 01:30:17;;;;;;;5.90;3.00;;;17.10;99.90;;;;;;5033005;28;20416;-68
2022/08/26 01:32:44;;;;;;;4.63;2.80;;;17.00;99.90;;;;;;5031748;28;20459;-67
2022/08/26 01:35:10;;;;;;;5.07;2.87;;;17.00;99.90;;;;;;5032945;28;20504;-67
2022/08/26 01:37:37;;;;;;;4.03;2.43;;;17.00;99.90;;;;;;5032925;28;20592;-67
2022/08/26 01:40:06;;;;;;;5.30;2.77;;;17.00;99.90;;;;;;5032934;28;20253;-67
2022/08/26 01:42:33;;;;;;;8.73;3.70;;;17.10;99.90;;;;;;5032458;28;20867;-67
2022/08/26 01:45:06;;;;;;;3.80;2.70;;;17.00;99.90;;;;;;5032720;28;20786;-67
2022/08/26 01:47:34;;;;;;;9.03;3.37;;;17.00;99.90;;;;;;5032672;28;20413;-67
2022/08/26 01:50:05;;;;;;;3.67;2.57;;;17.00;99.90;;;;;;5032672;28;21030;-67
2022/08/26 01:52:34;;;;;;;4.60;3.17;;;17.00;99.90;;;;;;5031989;28;20902;-67
2022/08/26 01:55:00;;;;;;;5.03;2.70;;;17.00;99.90;;;;;;5032565;28;20417;-67
2022/08/26 01:57:27;;;;;;;4.80;2.90;;;16.90;99.90;;;;;;5048156;28;20416;-67
2022/08/26 01:59:55;;;;;;;6.70;2.43;;;16.90;99.90;;;;;;5051594;28;20184;-67
2022/08/26 02:02:22;;;;;;;5.17;2.97;;;16.80;99.90;;;;;;5051877;28;20412;-67
2022/08/26 02:04:52;;;;;;;4.43;3.10;;;16.70;99.90;;;;;;5052135;28;20528;-67
2022/08/26 02:07:20;;;;;;;5.53;2.70;;;16.70;99.90;;;;;;5052131;28;20409;-67
2022/08/26 02:09:46;;;;;;;3.93;2.40;;;16.70;99.90;;;;;;5052434;28;20411;-67
2022/08/26 02:12:15;;;;;;;4.97;2.97;;;16.70;99.90;;;;;;5051672;28;20400;-67
2022/08/26 02:14:48;;;;;;;4.50;2.60;;;16.70;99.90;;;;;;5052039;28;20443;-67
2022/08/26 02:17:16;;;;;;;4.00;2.40;;;16.70;99.90;;;;;;5050926;28;20428;-67
2022/08/26 02:19:46;;;;;;;4.13;2.80;;;16.60;99.90;;;;;;5052068;28;20985;-67
2022/08/26 02:22:18;;;;;;;8.50;3.37;;;16.60;99.90;;;;;;5051623;28;20488;-67
2022/08/26 02:24:52;;;;;;;5.90;3.30;;;16.50;99.90;;;;;;5052135;28;20948;-67
2022/08/26 02:27:22;;;;;;;3.70;2.70;;;16.50;99.90;;;;;;5052179;28;20495;-67
2022/08/26 02:29:54;;;;;;;10.23;3.40;;;16.50;99.90;;;;;;5051894;28;20450;-67
2022/08/26 02:32:19;;;;;;;3.63;2.43;;;16.40;99.90;;;;;;5050858;28;20413;-67
2022/08/26 02:34:45;;;;;;;4.70;2.90;;;16.30;99.90;;;;;;5051847;28;20435;-67
2022/08/26 02:37:11;;;;;;;4.40;2.40;;;16.30;99.90;;;;;;5051854;28;20220;-67
2022/08/26 02:39:39;;;;;;;4.57;2.67;;;16.30;99.90;;;;;;5051916;28;20900;-67
2022/08/26 02:42:05;;;;;;;7.03;3.10;;;16.30;99.90;;;;;;5051418;28;20497;-67
2022/08/26 02:44:31;;;;;;;4.50;2.80;;;16.20;99.90;;;;;;5051491;28;20416;-67
2022/08/26 02:46:58;;;;;;;6.80;3.60;;;16.20;99.90;;;;;;5051866;28;20408;-67
2022/08/26 02:49:25;;;;;;;3.53;2.30;;;16.10;99.90;;;;;;5051659;28;20463;-67
2022/08/26 02:51:51;;;;;;;12.53;2.87;;;16.20;99.90;;;;;;5051214;28;20425;-67
2022/08/26 02:54:19;;;;;;;5.47;3.00;;;16.20;99.90;;;;;;5051747;28;20907;-67
2022/08/26 02:56:44;;;;;;;8.30;3.67;;;16.20;99.90;;;;;;5051592;28;20429;-67
2022/08/26 02:59:11;;;;;;;5.93;3.07;;;16.20;99.90;;;;;;5051492;28;20481;-67
2022/08/26 03:01:39;;;;;;;6.23;3.53;;;16.20;99.90;;;;;;5051401;28;20645;-67
2022/08/26 03:04:06;;;;;;;4.30;2.40;;;16.20;99.90;;;;;;5051490;28;20412;-67
2022/08/26 03:06:32;;;;;;;7.03;3.13;;;16.10;99.90;;;;;;5051634;28;20550;-67
2022/08/26 03:08:58;;;;;;;4.17;2.80;;;16.10;99.90;;;;;;5051832;28;20964;-67
2022/08/26 03:11:24;;;;;;;5.30;2.37;;;16.20;99.90;;;;;;5053045;28;20257;-67
2022/08/26 03:13:51;;;;;;;4.67;2.70;;;16.20;99.90;;;;;;5055332;28;20264;-67
2022/08/26 03:16:17;;;;;;;4.53;3.30;;;16.20;99.90;;;;;;5055287;28;20427;-67
2022/08/26 03:18:43;;;;;;;4.97;2.70;;;16.20;99.90;;;;;;5055319;28;20420;-67
2022/08/26 03:21:15;;;;;;;5.60;3.10;;;16.20;99.90;;;;;;5054994;28;20491;-67
2022/08/26 03:23:43;;;;;;;5.10;2.60;;;16.20;99.90;;;;;;5055214;28;20174;-67
2022/08/26 03:26:11;;;;;;;4.87;2.80;;;16.20;99.90;;;;;;5055135;28;20945;-68
2022/08/26 03:30:38;;;;;;;7.20;3.30;;;16.10;99.90;;;;;;5054950;28;20404;-67
2022/08/26 03:31:23;;;;;;;5.83;3.30;;;16.20;99.90;;;;;;5054337;28;20519;-67
2022/08/26 03:33:48;;;;;;;5.90;2.60;;;16.20;99.90;;;;;;5054183;28;20501;-67
2022/08/26 03:36:14;;;;;;;4.13;2.90;;;16.10;99.90;;;;;;5055111;28;20639;-67
2022/08/26 03:38:40;;;;;;;5.50;3.00;;;16.10;99.90;;;;;;5054965;28;20181;-67
2022/08/26 03:41:07;;;;;;;4.93;2.57;;;16.00;99.90;;;;;;5054564;28;20185;-68
2022/08/26 03:43:33;;;;;;;4.80;3.00;;;16.00;99.90;;;;;;5054712;28;20216;-67
2022/08/26 03:46:07;;;;;;;5.83;3.13;;;16.00;99.90;;;;;;5054561;28;20480;-67
2022/08/26 03:48:32;;;;;;;6.63;3.07;;;15.90;99.90;;;;;;5054839;28;20166;-67
2022/08/26 03:50:59;;;;;;;5.20;3.10;;;15.90;99.90;;;;;;5054236;28;20770;-67
2022/08/26 03:53:24;;;;;;;4.10;2.60;;;15.80;99.90;;;;;;5054339;28;20189;-67
2022/08/26 03:55:50;;;;;;;4.20;2.60;;;15.80;99.90;;;;;;5054529;28;20408;-69
2022/08/26 03:58:16;;;;;;;6.97;3.27;;;15.80;99.90;;;;;;5054608;28;20212;-67
2022/08/26 04:00:41;;;;;;;4.67;3.07;;;15.70;99.90;;;;;;5054453;28;20575;-67
2022/08/26 04:03:07;;;;;;;5.60;3.17;;;15.70;99.90;;;;;;5053920;28;20232;-67
2022/08/26 04:05:33;;;;;;;5.60;2.97;;;15.70;99.90;;;;;;5054128;28;20665;-68
2022/08/26 04:07:58;;;;;;;4.07;2.90;;;15.70;99.90;;;;;;5054400;28;20173;-67
2022/08/26 04:10:26;;;;;;;5.30;3.50;;;15.70;99.90;;;;;;5054220;28;20174;-67
2022/08/26 04:12:52;;;;;;;12.80;3.47;;;15.60;99.90;;;;;;5053957;28;20165;-68
2022/08/26 04:15:18;;;;;;;6.60;2.80;;;15.60;99.90;;;;;;5054050;28;20424;-68
2022/08/26 04:17:44;;;;;;;5.30;2.90;;;15.50;99.90;;;;;;5054204;28;20431;-68
2022/08/26 04:20:12;;;;;;;4.60;3.00;;;15.50;99.90;;;;;;5054235;28;20889;-68
2022/08/26 04:22:40;;;;;;;6.73;3.17;;;15.50;99.90;;;;;;5053194;28;20178;-68
2022/08/26 04:25:07;;;;;;;6.90;3.70;;;15.60;99.90;;;;;;5053981;28;21334;-68
2022/08/26 04:27:33;;;;;;;4.33;2.93;;;15.60;99.90;;;;;;5054057;28;20409;-68
2022/08/26 04:29:59;;;;;;;6.37;2.70;;;15.60;99.90;;;;;;5053787;28;20400;-68
2022/08/26 04:32:25;;;;;;;7.63;2.50;;;15.60;99.90;;;;;;5052803;28;20169;-69
2022/08/26 04:34:51;;;;;;;4.10;2.90;;;15.60;99.90;;;;;;5053920;28;20180;-68
2022/08/26 04:37:16;;;;;;;4.67;2.83;;;15.60;99.90;;;;;;5054067;28;20496;-68
2022/08/26 04:39:42;;;;;;;4.87;2.77;;;15.60;99.90;;;;;;5054021;28;20657;-68
2022/08/26 04:42:07;;;;;;;5.30;2.67;;;15.60;99.90;;;;;;5053363;28;20182;-68
2022/08/26 04:44:35;;;;;;;6.23;3.50;;;15.60;99.90;;;;;;5053616;28;20587;-68
2022/08/26 04:47:01;;;;;;;7.67;2.90;;;15.60;99.90;;;;;;5053697;28;20174;-68
2022/08/26 04:49:27;;;;;;;6.70;3.13;;;15.50;99.90;;;;;;5053577;28;20483;-68
2022/08/26 04:51:53;;;;;;;3.40;2.20;;;15.60;99.90;;;;;;5053016;28;20204;-68
2022/08/26 04:54:19;;;;;;;3.87;2.73;;;15.50;99.90;;;;;;5053656;28;20207;-69
2022/08/26 04:56:48;;;;;;;4.37;2.40;;;15.50;99.90;;;;;;5053276;28;20502;-68
2022/08/26 04:59:16;;;;;;;3.70;2.60;;;15.50;99.90;;;;;;5053415;28;20170;-68
2022/08/26 05:01:43;;;;;;;4.83;3.37;;;15.50;99.90;;;;;;5052883;28;20416;-68
2022/08/26 05:04:10;;;;;;;7.90;2.90;;;15.60;99.90;;;;;;5053246;28;20507;-68
2022/08/26 05:06:35;;;;;;;6.53;3.20;;;15.60;99.90;;;;;;5053029;28;20460;-68
2022/08/26 05:09:01;;;;;;;10.00;2.77;;;15.60;99.90;;;;;;5053057;28;20427;-68
2022/08/26 05:11:26;;;;;;;4.57;2.70;;;15.60;99.90;;;;;;5052632;28;20186;-68
2022/08/26 05:13:52;;;;;;;5.13;3.17;;;15.60;99.90;;;;;;5053138;28;20538;-68
2022/08/26 05:16:18;;;;;;;3.60;2.47;;;15.70;99.90;;;;;;5053128;28;20173;-68
2022/08/26 05:18:44;;;;;;;10.00;4.33;;;15.70;99.90;;;;;;5052794;28;20169;-68
2022/08/26 05:21:21;;;;;;;10.53;3.37;;;15.70;99.90;;;;;;5052454;28;20181;-68
2022/08/26 05:23:50;;;;;;;5.70;2.93;;;15.70;99.90;;;;;;5052767;28;20450;-68
2022/08/26 05:26:16;;;;;;;4.67;3.10;;;15.70;99.90;;;;;;5052616;28;20513;-68
2022/08/26 05:28:42;;;;;;;6.37;3.83;;;15.80;99.90;;;;;;5052961;28;20424;-68
2022/08/26 05:31:20;;;;;;;6.00;3.37;;;15.80;99.90;;;;;;5052296;28;20412;-68
2022/08/26 05:33:46;;;;;;;7.57;3.77;;;15.80;99.90;;;;;;5051353;28;20415;-68
2022/08/26 05:36:16;;;;;;;8.70;4.93;;;15.80;99.90;;;;;;5051967;28;20880;-68
2022/08/26 05:38:42;;;;;;;9.23;5.20;;;15.90;99.90;;;;;;5052529;28;20423;-68
2022/08/26 05:41:16;;;;;;;7.00;4.10;;;15.90;99.90;;;;;;5052042;28;20404;-68
2022/08/26 05:43:41;;;;;;;6.80;4.17;;;15.90;99.90;;;;;;5052543;28;20416;-68
2022/08/26 05:46:07;;;;;;;7.07;4.67;;;15.90;99.90;;;;;;5052286;28;20494;-68
2022/08/26 05:48:32;;;;;;;6.03;3.07;;;15.90;99.90;;;;;;5052341;28;20180;-68
2022/08/26 05:51:02;;;;;;;5.70;3.30;;;16.00;99.90;;;;;;5051813;28;20166;-68
2022/08/26 05:53:28;;;;;;;7.13;4.20;;;16.00;99.90;;;;;;5052398;28;20243;-68
2022/08/26 05:55:54;;;;;;;7.23;3.93;;;16.10;99.90;;;;;;5052277;28;20441;-68
2022/08/26 05:58:22;;;;;;;7.13;4.20;;;16.10;99.90;;;;;;5052209;28;20221;-68
2022/08/26 06:01:03;;;;;;;7.77;3.97;;;16.20;99.90;;;;;;5051949;28;20412;-68
2022/08/26 06:03:30;;;;;;;10.00;3.83;;;16.30;99.90;;;;;;5052328;28;20408;-68
2022/08/26 06:05:56;;;;;;;6.37;3.50;;;16.40;99.90;;;;;;5052263;28;20546;-68
2022/08/26 06:08:22;;;;;;;8.57;4.40;;;16.50;99.90;;;;;;5052627;28;20435;-67
2022/08/26 06:10:58;;;;;;;6.93;3.50;;;16.60;99.90;;;;;;5052381;28;20885;-67
2022/08/26 06:13:26;;;;;;;6.50;3.80;;;16.70;99.90;;;;;;5052159;28;20678;-67
2022/08/26 06:15:53;;;;;;;6.07;3.30;;;16.90;99.90;;;;;;5052272;28;20903;-67
2022/08/26 06:18:29;;;;;;;5.47;3.80;;;17.00;99.90;;;;;;5052184;28;20447;-67
2022/08/26 06:20:55;;;;;;;8.73;3.97;;;17.10;99.90;;;;;;5052026;28;20423;-68
2022/08/26 06:26:05;;;;;;;8.23;4.53;;;17.40;99.90;;;;;;5052094;28;20672;-68
2022/08/26 06:28:31;;;;;;;5.90;3.20;;;17.50;99.90;;;;;;5052173;28;20420;-68
2022/08/26 06:30:57;;;;;;;7.40;4.60;;;17.60;99.90;;;;;;5051856;28;20182;-68
2022/08/26 06:33:26;;;;;;;6.47;3.60;;;17.80;99.90;;;;;;5050682;28;20264;-68
2022/08/26 06:35:52;;;;;;;14.33;3.33;;;17.90;99.90;;;;;;5051447;28;20181;-67
2022/08/26 06:38:18;;;;;;;7.83;3.67;;;18.00;99.90;;;;;;5051876;28;20416;-68
2022/08/26 06:40:47;;;;;;;25.77;5.50;;;18.20;99.90;;;;;;5051760;28;20178;-68
2022/08/26 06:43:17;;;;;;;70.37;7.17;;;18.50;99.90;;;;;;5051450;28;20417;-68
2022/08/26 06:45:44;;;;;;;13.03;4.07;;;18.80;99.90;;;;;;5052379;28;20471;-68
2022/08/26 06:48:14;;;;;;;9.43;3.40;;;19.00;99.90;;;;;;5055778;28;20427;-68
2022/08/26 06:50:41;;;;;;;30.97;4.80;;;19.40;99.90;;;;;;5055580;28;20416;-68
2022/08/26 06:53:08;;;;;;;17.73;3.73;;;19.50;99.90;;;;;;5054969;28;20918;-68
2022/08/26 06:55:42;;;;;;;10.53;4.70;;;19.70;99.90;;;;;;5055357;28;20431;-68
2022/08/26 06:58:08;;;;;;;6.90;3.17;;;20.00;99.90;;;;;;5055497;28;20418;-68
2022/08/26 07:00:35;;;;;;;8.13;3.27;;;20.10;99.90;;;;;;5055516;28;20412;-68
2022/08/26 07:03:02;;;;;;;10.93;3.00;;;20.30;99.90;;;;;;5054943;28;20509;-68
2022/08/26 07:05:27;;;;;;;19.40;3.83;;;20.40;99.90;;;;;;5055280;28;20971;-68
2022/08/26 07:07:54;;;;;;;19.63;3.70;;;20.60;99.90;;;;;;5055379;28;20416;-68
2022/08/26 07:10:19;;;;;;;8.97;3.47;;;20.90;99.90;;;;;;5055239;28;20220;-68
2022/08/26 07:12:45;;;;;;;3.63;2.10;;;21.30;99.90;;;;;;5054749;28;20408;-68
2022/08/26 07:15:11;;;;;;;5.63;3.20;;;21.70;99.90;;;;;;5055238;28;20185;-68
2022/08/26 07:17:36;;;;;;;6.23;3.00;;;22.30;98.80;;;;;;5055188;28;20186;-68
2022/08/26 07:20:06;;;;;;;4.30;3.17;;;22.90;97.70;;;;;;5055149;28;20619;-68
2022/08/26 07:22:31;;;;;;;5.00;2.90;;;23.40;96.70;;;;;;5054770;28;20590;-68
2022/08/26 07:24:57;;;;;;;6.97;3.10;;;23.50;96.40;;;;;;5054850;28;20550;-68
2022/08/26 07:27:23;;;;;;;6.80;3.57;;;23.80;96.20;;;;;;5055111;28;20172;-68
2022/08/26 07:29:49;;;;;;;7.73;3.27;;;24.40;95.50;;;;;;5055028;28;20494;-69
2022/08/26 07:32:15;;;;;;;3.90;2.43;;;25.20;94.50;;;;;;5053872;28;20172;-68
2022/08/26 07:34:41;;;;;;;4.07;2.80;;;26.30;92.60;;;;;;5055078;28;20272;-68
2022/08/26 07:37:08;;;;;;;7.80;3.50;;;27.30;90.00;;;;;;5055244;28;20664;-68
2022/08/26 07:39:34;;;;;;;4.35;2.92;;;28.10;87.00;;;;;;5055451;28;20200;-69
2022/08/26 07:42:01;;;;;;;4.72;3.05;;;28.70;83.10;;;;;;5054346;28;20165;-68
2022/08/26 07:44:27;;;;;;;4.97;2.50;;;28.90;79.70;;;;;;5054660;28;20260;-68
2022/08/26 07:46:53;;;;;;;4.38;2.45;;;28.90;80.00;;;;;;5054744;28;20205;-69
2022/08/26 07:49:20;;;;;;;5.57;2.88;;;28.60;80.20;;;;;;5054786;28;20184;-68
2022/08/26 07:51:45;;;;;;;5.35;3.10;;;28.80;80.30;;;;;;5053954;28;20220;-68
2022/08/26 07:54:11;;;;;;;5.57;3.80;;;28.80;80.50;;;;;;5054453;28;20204;-68
2022/08/26 07:56:37;;;;;;;4.63;2.97;;;29.30;78.90;;;;;;5054056;28;20216;-68
2022/08/26 07:59:02;;;;;;;5.07;2.78;;;29.60;77.00;;;;;;5053437;28;20181;-68
2022/08/26 08:01:30;;;;;;;4.80;2.50;;;29.50;76.80;;;;;;5053909;28;20201;-68
2022/08/26 08:03:56;;;;;;;5.28;2.92;;;28.80;77.90;;;;;;5054143;28;20174;-68
2022/08/26 08:06:24;;;;;;;4.45;2.30;;;28.30;78.60;;;;;;5054064;28;20228;-68
2022/08/26 08:08:50;;;;;;;20.80;2.88;;;27.80;78.70;;;;;;5054226;28;20177;-68
2022/08/26 08:11:19;;;;;;;5.70;3.08;;;27.40;80.20;;;;;;5053636;28;20165;-68
2022/08/26 08:13:44;;;;;;;5.68;2.63;;;27.40;80.90;;;;;;5054072;28;20222;-68
2022/08/26 08:16:10;;;;;;;4.85;2.65;;;28.10;79.80;;;;;;5054189;28;20174;-68
2022/08/26 08:18:36;;;;;;;4.25;2.88;;;28.70;77.40;;;;;;5054228;28;20252;-68
2022/08/26 08:21:02;;;;;;;3.92;2.53;;;29.00;77.70;;;;;;5053536;28;20634;-68
2022/08/26 08:23:30;;;;;;;5.00;2.30;;;29.40;76.10;;;;;;5054061;28;20169;-68
2022/08/26 08:26:07;;;;;;;5.53;2.58;;;29.70;75.10;;;;;;5054008;28;20207;-68
2022/08/26 08:28:34;;;;;;;3.08;1.90;;;29.90;74.90;;;;;;5053924;28;20173;-68
2022/08/26 08:31:00;;;;;;;5.00;2.50;;;30.70;71.60;;;;;;5053522;28;20280;-69
2022/08/26 08:33:28;;;;;;;5.50;2.80;;;31.00;70.80;;;;;;5052995;28;20172;-68
2022/08/26 08:35:55;;;;;;;3.67;2.03;;;31.10;70.20;;;;;;5053834;28;20170;-68
2022/08/26 08:38:21;;;;;;;4.22;2.55;;;31.40;68.10;;;;;;5053806;28;20261;-69
2022/08/26 08:40:47;;;;;;;4.25;2.45;;;31.50;68.20;;;;;;5054104;28;20284;-69
2022/08/26 08:43:38;;;;;;;5.28;2.42;;;31.30;69.40;;;;;;5054166;28;20181;-68
2022/08/26 08:46:09;;;;;;;6.25;2.45;;;31.20;68.40;;;;;;5054543;28;20213;-68
2022/08/26 08:48:41;;;;;;;8.30;3.20;;;31.00;69.00;;;;;;5054823;28;20209;-69
2022/08/26 08:51:34;;;;;;;5.25;2.58;;;31.30;68.00;;;;;;5054290;28;20177;-68
2022/08/26 08:54:01;;;;;;;6.45;2.58;;;31.50;67.10;;;;;;5054314;28;20263;-69
2022/08/26 08:56:31;;;;;;;3.88;2.22;;;31.40;68.90;;;;;;5054198;28;20231;-69
2022/08/26 08:59:18;;;;;;;7.20;3.55;;;31.50;67.70;;;;;;5054168;28;20215;-69
2022/08/26 09:01:43;;;;;;;6.72;3.22;;;32.10;65.90;;;;;;5053514;28;20176;-69
2022/08/26 09:04:37;;;;;;;7.70;3.22;;;32.20;65.80;;;;;;5053636;28;20169;-69
2022/08/26 09:07:05;;;;;;;4.78;3.22;;;32.40;64.60;;;;;;5053193;28;20196;-69
2022/08/26 09:09:39;;;;;;;4.80;2.30;;;31.50;66.90;;;;;;5053369;28;20177;-68
2022/08/26 09:12:12;;;;;;;8.82;3.47;;;31.30;67.70;;;;;;5052950;28;20200;-69
2022/08/26 09:14:37;;;;;;;18.85;3.50;;;31.00;67.80;;;;;;5053059;28;20280;-69
2022/08/26 09:17:33;;;;;;;5.75;2.92;;;31.10;69.50;;;;;;5053203;28;20221;-69
2022/08/26 09:20:39;;;;;;;4.57;2.88;;;31.20;69.10;;;;;;5053175;28;20684;-68
2022/08/26 09:23:05;;;;;;;5.95;2.63;;;31.80;66.50;;;;;;5052468;28;20189;-68
2022/08/26 09:25:31;;;;;;;4.15;2.83;;;32.10;65.60;;;;;;5052804;28;20193;-69
2022/08/26 09:27:57;;;;;;;8.70;2.92;;;31.80;67.00;;;;;;5052709;28;20173;-69
2022/08/26 09:30:27;;;;;;;6.32;2.42;;;32.50;64.10;;;;;;5052750;28;20515;-68
2022/08/26 09:33:08;;;;;;;6.28;3.20;;;32.70;64.20;;;;;;5051329;28;20196;-69
2022/08/26 09:35:39;;;;;;;6.32;3.17;;;31.80;66.80;;;;;;5052801;28;20172;-69
2022/08/26 09:38:31;;;;;;;6.57;3.83;;;31.70;66.80;;;;;;5052214;28;20818;-70
2022/08/26 09:41:04;;;;;;;9.80;4.05;;;31.90;66.70;;;;;;5052111;28;20281;-69
2022/08/26 09:43:30;;;;;;;5.40;3.47;;;32.10;65.00;;;;;;5052286;28;20196;-70
2022/08/26 09:46:13;;;;;;;6.35;2.88;;;32.20;64.50;;;;;;5051648;28;20220;-69
2022/08/26 09:48:40;;;;;;;8.32;3.80;;;32.90;62.80;;;;;;5051596;28;20165;-69
2022/08/26 09:51:29;;;;;;;4.60;3.20;;;32.80;61.60;;;;;;5051233;28;20173;-69
2022/08/26 09:53:58;;;;;;;7.07;3.70;;;31.60;64.30;;;;;;5051370;28;20210;-69
2022/08/26 09:56:26;;;;;;;4.25;2.67;;;31.40;65.20;;;;;;5051454;28;20200;-68
2022/08/26 09:58:52;;;;;;;7.70;3.20;;;31.20;65.00;;;;;;5051477;28;20642;-69
2022/08/26 10:01:51;;;;;;;7.80;2.45;;;30.40;67.60;;;;;;5051245;28;20173;-68
2022/08/26 10:04:22;;;;;;;12.77;3.22;;;29.50;70.90;;;;;;5052142;28;20185;-68
2022/08/26 10:06:58;;;;;;;4.45;2.90;;;29.30;70.50;;;;;;5052297;28;20650;-68
2022/08/26 10:09:25;;;;;;;5.13;2.90;;;28.70;72.30;;;;;;5052131;28;20613;-68
2022/08/26 10:11:54;;;;;;;8.13;3.80;;;28.70;72.50;;;;;;5051762;28;20207;-68
2022/08/26 10:14:29;;;;;;;6.35;3.35;;;28.60;72.00;;;;;;5051917;28;20170;-68
2022/08/26 10:17:04;;;;;;;7.28;4.03;;;28.30;74.60;;;;;;5052164;28;20181;-68
2022/08/26 10:19:40;;;;;;;5.50;3.22;;;28.00;73.70;;;;;;5051764;28;20176;-68
2022/08/26 10:22:29;;;;;;;6.40;2.80;;;27.80;74.50;;;;;;5051074;28;20219;-68
2022/08/26 10:25:02;;;;;;;5.50;3.00;;;27.70;74.60;;;;;;5051994;28;20177;-68
2022/08/26 10:27:42;;;;;;;4.93;2.80;;;27.40;74.90;;;;;;5051988;28;20173;-68
2022/08/26 10:30:21;;;;;;;12.07;3.80;;;27.60;74.00;;;;;;5051881;28;20176;-68
2022/08/26 10:32:55;;;;;;;6.43;3.40;;;28.00;75.50;;;;;;5050536;28;20180;-68
2022/08/26 10:35:22;;;;;;;5.97;3.47;;;28.50;74.00;;;;;;5052043;28;20189;-68
2022/08/26 10:37:54;;;;;;;9.97;3.03;;;28.80;72.10;;;;;;5052250;28;20641;-68
2022/08/26 10:40:44;;;;;;;11.50;2.90;;;28.80;71.30;;;;;;5052265;28;20183;-68
2022/08/26 10:43:09;;;;;;;11.13;3.10;;;29.00;71.10;;;;;;5051542;28;20182;-68
2022/08/26 10:45:41;;;;;;;7.05;3.30;;;29.30;69.60;;;;;;5051993;28;20201;-68
2022/08/26 10:48:11;;;;;;;7.25;3.60;;;29.00;69.80;;;;;;5052086;28;20179;-68
2022/08/26 10:50:40;;;;;;;5.60;3.25;;;29.00;70.50;;;;;;5051945;28;20624;-68
2022/08/26 10:53:37;;;;;;;8.75;3.15;;;29.10;71.10;;;;;;5051312;28;20272;-68
2022/08/26 10:56:45;;;;;;;6.23;3.03;;;28.90;71.80;;;;;;5051713;28;20245;-68
2022/08/26 10:59:55;;;;;;;8.90;3.40;;;28.90;71.70;;;;;;5051544;28;20177;-68
2022/08/26 11:02:40;;;;;;;6.80;3.60;;;29.10;71.20;;;;;;5051372;28;20188;-68
2022/08/26 11:05:21;;;;;;;6.00;3.70;;;29.10;70.90;;;;;;5051260;28;20283;-68
2022/08/26 11:07:51;;;;;;;6.15;3.70;;;29.10;70.80;;;;;;5051771;28;20203;-68
2022/08/26 11:10:19;;;;;;;8.57;3.47;;;28.80;71.90;;;;;;5051431;28;20184;-68
2022/08/26 11:12:47;;;;;;;6.82;3.00;;;28.70;72.20;;;;;;5051089;28;20173;-69
2022/08/26 11:15:28;;;;;;;5.22;2.60;;;29.00;71.30;;;;;;5051311;28;20243;-69
2022/08/26 11:18:07;;;;;;;7.45;3.60;;;29.30;70.80;;;;;;5051525;28;20630;-67
2022/08/26 11:20:46;;;;;;;6.95;3.47;;;29.80;68.50;;;;;;5051208;28;20177;-68
2022/08/26 11:23:11;;;;;;;6.85;2.90;;;29.90;69.30;;;;;;5050613;28;20196;-68
2022/08/26 11:25:55;;;;;;;5.38;2.92;;;30.00;68.40;;;;;;5050772;28;20201;-68
2022/08/26 11:28:46;;;;;;;11.23;3.35;;;30.30;67.10;;;;;;5050894;28;20181;-68
2022/08/26 11:31:38;;;;;;;13.20;3.72;;;30.30;67.00;;;;;;5050361;28;20536;-68
2022/08/26 11:34:05;;;;;;;6.30;3.03;;;30.40;68.90;;;;;;5052496;28;20185;-68
2022/08/26 11:36:53;;;;;;;9.82;3.20;;;30.70;67.50;;;;;;5054428;28;20176;-68
2022/08/26 11:39:23;;;;;;;11.35;3.83;;;30.40;66.80;;;;;;5054413;28;20203;-68
2022/08/26 11:41:51;;;;;;;7.65;3.47;;;30.80;65.80;;;;;;5053827;28;20277;-69
2022/08/26 11:44:24;;;;;;;17.92;5.05;;;31.00;65.50;;;;;;5054105;28;20173;-69
2022/08/26 11:46:58;;;;;;;7.60;3.00;;;31.10;64.10;;;;;;5054426;28;20213;-68
2022/08/26 11:49:27;;;;;;;8.98;3.45;;;30.90;64.90;;;;;;5054174;28;20174;-69
2022/08/26 11:52:11;;;;;;;6.80;3.30;;;30.60;64.60;;;;;;5053609;28;20252;-69
2022/08/26 11:54:37;;;;;;;32.85;3.63;;;30.10;66.30;;;;;;5054098;28;20660;-69
2022/08/26 11:57:06;;;;;;;5.82;3.33;;;29.60;66.60;;;;;;5054244;28;20181;-68
2022/08/26 11:59:37;;;;;;;9.18;3.13;;;29.50;67.10;;;;;;5054540;28;20169;-68
2022/08/26 12:02:09;;;;;;;7.68;3.35;;;29.30;66.90;;;;;;5053841;28;20180;-68
2022/08/26 12:04:39;;;;;;;6.70;3.72;;;29.00;68.10;;;;;;5054483;28;20175;-68
2022/08/26 12:07:07;;;;;;;8.98;3.97;;;28.80;68.10;;;;;;5054266;28;20201;-69
2022/08/26 12:09:35;;;;;;;10.95;4.30;;;28.60;68.70;;;;;;5054517;28;20499;-68
2022/08/26 12:12:13;;;;;;;10.83;3.90;;;28.50;68.80;;;;;;5054055;28;20691;-68
2022/08/26 12:14:39;;;;;;;12.60;3.40;;;28.30;70.10;;;;;;5054090;28;20173;-68
2022/08/26 12:17:14;;;;;;;7.23;3.53;;;28.20;70.80;;;;;;5054311;28;20774;-68
2022/08/26 12:19:39;;;;;;;4.30;2.57;;;28.10;71.30;;;;;;5054246;28;20184;-68
2022/08/26 12:22:24;;;;;;;4.80;2.87;;;28.00;71.00;;;;;;5053680;28;20252;-68
2022/08/26 12:25:06;;;;;;;6.00;2.70;;;28.00;72.80;;;;;;5054120;28;20181;-68
2022/08/26 12:27:38;;;;;;;4.97;2.87;;;27.60;75.50;;;;;;5053994;28;20173;-68
2022/08/26 12:30:21;;;;;;;6.63;2.70;;;27.30;77.10;;;;;;5054054;28;20514;-68
2022/08/26 12:33:01;;;;;;;7.73;3.13;;;27.10;77.50;;;;;;5052877;28;20179;-68
2022/08/26 12:35:27;;;;;;;5.53;3.20;;;26.80;78.20;;;;;;5053753;28;20408;-68
2022/08/26 12:37:54;;;;;;;7.23;3.20;;;26.60;79.20;;;;;;5053715;28;20759;-68
2022/08/26 12:40:34;;;;;;;5.40;2.60;;;26.60;79.10;;;;;;5053758;28;20416;-68
2022/08/26 12:43:02;;;;;;;6.10;3.20;;;26.50;79.60;;;;;;5053151;28;20415;-69
2022/08/26 12:45:31;;;;;;;6.30;3.17;;;26.40;79.30;;;;;;5053021;28;20466;-68
2022/08/26 12:48:05;;;;;;;5.77;2.83;;;26.50;80.60;;;;;;5053516;28;20428;-68
2022/08/26 12:50:34;;;;;;;8.47;2.83;;;26.50;80.10;;;;;;5053419;28;20409;-68
2022/08/26 12:53:07;;;;;;;6.97;3.10;;;26.50;80.20;;;;;;5052966;28;20540;-68
2022/08/26 12:56:03;;;;;;;5.10;3.10;;;26.50;80.60;;;;;;5053536;28;20408;-68
2022/08/26 12:58:35;;;;;;;6.53;2.90;;;26.80;80.10;;;;;;5053390;28;20440;-68
2022/08/26 13:01:03;;;;;;;7.73;3.70;;;26.90;79.40;;;;;;5053108;28;21042;-69
2022/08/26 13:03:37;;;;;;;9.37;3.30;;;27.10;79.30;;;;;;5053140;28;20751;-68